Time;durP1;ratioP1;P1;durP2;ratioP2;P2;SDS_P1;SDS_P2;PMS_P1;PMS_P2;Temp;Humidity;BMP_temperature;BMP_pressure;BME280_temperature;BME280_humidity;BME280_pressure;Samples;Min_cycle;Max_cycle;Signal;HPM_P1;HPM_P2
2023/08/01 01:15:48;;;;;;;5.93;3.23;;;14.10;99.90;;;;;;1917316;74;27076;-90
2023/08/01 06:00:11;;;;;;;1.90;1.80;;;16.90;99.90;;;;;;1961942;69;27050;-89
2023/08/01 06:06:16;;;;;;;3.47;1.80;;;17.90;99.90;;;;;;1948553;72;26937;-88
2023/08/01 06:11:50;;;;;;;6.37;1.90;;;18.30;99.90;;;;;;1900749;74;27725;-87
2023/08/01 06:14:48;;;;;;;4.40;2.00;;;18.10;99.90;;;;;;1849345;76;25741;-90
2023/08/01 06:17:38;;;;;;;2.83;1.70;;;17.50;99.90;;;;;;1850562;77;25752;-89
2023/08/01 06:20:28;;;;;;;6.43;2.00;;;17.50;99.90;;;;;;1861154;77;25342;-90
2023/08/01 06:34:11;;;;;;;3.93;1.80;;;17.60;99.90;;;;;;1929510;73;25285;-90
2023/08/01 06:37:23;;;;;;;2.90;1.60;;;18.00;99.90;;;;;;1930450;72;25674;-90
2023/08/01 06:43:25;;;;;;;2.73;1.60;;;18.40;99.90;;;;;;1827511;76;25733;-90
2023/08/01 06:46:15;;;;;;;3.27;1.80;;;18.00;99.90;;;;;;1837187;77;25273;-90
2023/08/01 06:49:07;;;;;;;3.57;2.10;;;17.90;99.90;;;;;;1875169;76;25257;-90
2023/08/01 06:52:02;;;;;;;3.43;1.90;;;17.90;99.90;;;;;;1813145;78;25295;-90
2023/08/01 06:54:56;;;;;;;5.17;2.03;;;17.70;99.90;;;;;;1811128;78;25247;-90
2023/08/01 06:58:08;;;;;;;2.87;1.80;;;17.70;99.90;;;;;;1909541;73;25366;-90
2023/08/01 07:01:04;;;;;;;3.33;1.90;;;17.80;99.90;;;;;;1889571;73;25264;-90
2023/08/01 07:03:56;;;;;;;2.97;1.30;;;18.60;99.90;;;;;;1861592;73;25196;-90
2023/08/01 07:40:16;;;;;;;3.87;1.57;;;20.40;99.90;;;;;;1980131;71;30506;-89
2023/08/01 07:43:09;;;;;;;4.03;1.80;;;20.30;99.90;;;;;;1919192;73;25553;-89
2023/08/01 07:46:04;;;;;;;4.03;1.87;;;20.50;99.90;;;;;;1922395;73;25247;-88
2023/08/01 07:48:54;;;;;;;6.43;1.80;;;20.20;99.90;;;;;;1927210;72;25698;-89
2023/08/01 07:51:44;;;;;;;4.23;1.67;;;19.80;99.90;;;;;;1929457;73;25271;-88
2023/08/01 07:54:36;;;;;;;3.83;1.67;;;20.30;99.90;;;;;;1932709;73;25160;-88
2023/08/01 09:10:57;;;;;;;2.87;1.40;;;21.00;99.90;;;;;;1943851;72;29918;-88
2023/08/01 09:14:17;;;;;;;1.67;1.30;;;21.00;99.90;;;;;;1920034;73;25284;-88
2023/08/01 09:17:46;;;;;;;1.90;1.20;;;20.60;99.90;;;;;;1937374;73;25183;-87
2023/08/01 09:49:43;;;;;;;1.77;1.50;;;20.50;99.90;;;;;;1911293;74;25793;-88
2023/08/01 09:56:50;;;;;;;2.23;1.40;;;19.70;99.90;;;;;;1906715;74;25277;-88
2023/08/01 10:03:29;;;;;;;2.33;1.40;;;20.10;99.90;;;;;;1914343;74;25759;-89
2023/08/01 10:10:32;;;;;;;3.70;1.37;;;20.50;99.90;;;;;;1910153;74;25353;-90
2023/08/01 12:26:10;;;;;;;1.70;1.23;;;21.00;99.90;;;;;;1881790;75;25381;-90
2023/08/01 12:47:47;;;;;;;7.87;1.60;;;21.80;99.90;;;;;;1885216;74;26755;-90
2023/08/01 12:50:59;;;;;;;1.83;1.40;;;21.70;99.90;;;;;;1806804;77;25332;-90
2023/08/01 12:53:53;;;;;;;2.63;1.40;;;22.00;99.90;;;;;;1841031;77;26389;-90
2023/08/01 12:56:57;;;;;;;2.37;1.10;;;22.10;99.90;;;;;;1857379;77;25905;-89
2023/08/01 13:03:13;;;;;;;1.53;1.40;;;22.10;99.90;;;;;;1977992;71;27026;-87
2023/08/01 13:06:23;;;;;;;1.87;1.23;;;21.70;99.90;;;;;;1969198;72;25250;-87
2023/08/01 13:12:10;;;;;;;2.63;1.27;;;21.50;99.90;;;;;;1939825;72;27050;-87
2023/08/01 13:18:03;;;;;;;3.77;1.30;;;21.50;99.90;;;;;;1944125;72;28802;-89
2023/08/01 13:20:57;;;;;;;1.40;1.30;;;21.50;99.90;;;;;;1916524;73;25718;-87
2023/08/01 13:23:48;;;;;;;1.47;1.13;;;21.80;99.90;;;;;;1939976;73;25722;-86
2023/08/01 13:26:38;;;;;;;2.10;1.37;;;21.50;99.90;;;;;;1930618;73;25607;-86
2023/08/01 13:29:28;;;;;;;1.50;1.40;;;21.20;99.90;;;;;;1920543;73;25242;-89
2023/08/01 13:32:18;;;;;;;1.63;1.30;;;20.90;99.90;;;;;;1845645;75;25329;-89
2023/08/01 13:35:10;;;;;;;2.53;1.20;;;20.60;99.90;;;;;;1894624;73;25294;-88
2023/08/01 13:38:03;;;;;;;2.47;1.50;;;20.70;99.90;;;;;;1903999;74;25329;-86
2023/08/01 13:40:55;;;;;;;1.73;1.10;;;20.90;99.90;;;;;;1920851;73;25734;-88
2023/08/01 13:43:44;;;;;;;1.57;1.17;;;21.00;99.90;;;;;;1928416;73;25301;-88
2023/08/01 13:46:35;;;;;;;1.37;1.20;;;21.10;99.90;;;;;;1934253;73;25704;-88
2023/08/01 13:49:27;;;;;;;5.20;1.40;;;21.00;99.90;;;;;;1891329;73;25232;-88
2023/08/01 13:52:20;;;;;;;2.63;1.20;;;20.80;99.90;;;;;;1935963;73;25277;-87
2023/08/01 13:55:17;;;;;;;1.37;1.20;;;20.80;99.90;;;;;;1939894;73;25225;-87
2023/08/01 13:58:04;;;;;;;1.47;1.37;;;20.90;99.90;;;;;;1924559;73;25294;-87
2023/08/01 14:00:53;;;;;;;4.23;1.40;;;20.90;99.90;;;;;;1940860;73;25228;-87
2023/08/01 14:03:43;;;;;;;2.67;1.30;;;20.80;99.90;;;;;;1929381;73;25196;-87
2023/08/01 14:09:25;;;;;;;1.53;1.37;;;20.80;99.90;;;;;;1944411;72;27076;-86
2023/08/01 14:14:54;;;;;;;1.93;1.13;;;21.00;99.90;;;;;;1918499;72;27065;-86
2023/08/01 14:17:42;;;;;;;1.80;1.20;;;21.20;99.90;;;;;;1926703;73;25592;-86
2023/08/01 14:20:31;;;;;;;1.10;1.00;;;21.20;99.90;;;;;;1927015;73;25254;-87
2023/08/01 14:23:20;;;;;;;3.70;1.30;;;21.40;99.90;;;;;;1915763;72;25298;-87
2023/08/01 14:26:10;;;;;;;1.30;1.20;;;21.60;99.90;;;;;;1927914;73;25794;-87
2023/08/01 14:29:07;;;;;;;3.10;1.60;;;21.20;99.90;;;;;;1913271;75;25810;-87
2023/08/01 14:31:56;;;;;;;1.27;1.10;;;21.20;99.90;;;;;;1935817;73;25228;-86
2023/08/01 14:34:47;;;;;;;1.30;1.10;;;21.20;99.90;;;;;;1921467;72;25255;-87
2023/08/01 14:37:42;;;;;;;1.83;1.10;;;21.00;99.90;;;;;;1924706;73;25293;-87
2023/08/01 14:40:31;;;;;;;1.60;1.30;;;20.90;99.90;;;;;;1914505;72;25722;-87
2023/08/01 14:43:20;;;;;;;1.43;1.03;;;20.90;99.90;;;;;;1890172;73;25848;-87
2023/08/01 15:00:46;;;;;;;2.97;1.20;;;21.40;99.90;;;;;;1955980;72;28255;-88
2023/08/01 15:03:36;;;;;;;1.17;1.10;;;21.60;99.90;;;;;;1991857;70;25704;-88
2023/08/01 15:06:44;;;;;;;2.73;1.20;;;21.60;99.90;;;;;;1950489;72;25250;-87
2023/08/01 15:10:21;;;;;;;2.67;1.10;;;21.70;99.90;;;;;;1879570;75;25252;-88
2023/08/01 15:13:10;;;;;;;2.33;1.33;;;21.40;99.90;;;;;;1914857;73;25299;-88
2023/08/01 15:16:00;;;;;;;1.73;1.23;;;21.20;99.90;;;;;;1944454;72;25571;-88
2023/08/01 15:19:39;;;;;;;3.17;1.37;;;21.30;99.90;;;;;;1955685;72;25307;-89
2023/08/01 15:22:27;;;;;;;5.27;1.30;;;21.30;99.90;;;;;;1952191;72;25273;-86
2023/08/01 15:25:16;;;;;;;3.17;1.23;;;21.40;99.90;;;;;;1952002;72;25769;-88
2023/08/01 15:28:05;;;;;;;3.37;1.13;;;21.40;99.90;;;;;;1949398;73;25296;-88
2023/08/01 15:31:05;;;;;;;1.33;1.03;;;21.60;99.90;;;;;;1912179;73;25320;-87
2023/08/01 15:33:53;;;;;;;3.23;1.37;;;21.80;99.90;;;;;;1933783;73;25226;-87
2023/08/01 15:36:43;;;;;;;1.57;1.10;;;21.80;99.90;;;;;;1954559;73;25320;-86
2023/08/01 15:43:22;;;;;;;1.20;1.10;;;21.90;99.90;;;;;;1944865;72;26761;-87
2023/08/01 15:49:30;;;;;;;1.60;1.10;;;21.40;99.90;;;;;;1969150;72;26365;-89
2023/08/01 15:52:20;;;;;;;1.50;1.20;;;21.40;99.90;;;;;;1892050;75;25207;-86
2023/08/01 15:55:10;;;;;;;1.70;1.40;;;20.70;99.90;;;;;;1882072;75;25234;-86
2023/08/01 15:57:59;;;;;;;3.00;1.43;;;20.60;99.90;;;;;;1886810;75;25291;-87
2023/08/01 16:05:09;;;;;;;6.43;2.03;;;20.30;99.90;;;;;;2028879;69;26949;-87
2023/08/01 16:07:59;;;;;;;2.50;1.40;;;20.40;99.90;;;;;;2010136;69;25218;-86
2023/08/01 16:10:47;;;;;;;1.53;1.43;;;20.50;99.90;;;;;;2004328;70;25209;-87
2023/08/01 16:13:36;;;;;;;3.57;1.40;;;20.50;99.90;;;;;;2001094;71;25267;-87
2023/08/01 16:16:26;;;;;;;1.33;1.23;;;20.60;99.90;;;;;;1988021;71;25197;-87
2023/08/01 16:19:15;;;;;;;3.90;1.30;;;20.90;99.90;;;;;;1960166;72;25206;-87
2023/08/01 16:24:57;;;;;;;1.87;1.30;;;21.10;99.90;;;;;;1959119;72;26916;-88
2023/08/01 16:27:45;;;;;;;1.40;1.30;;;21.10;99.90;;;;;;1938578;73;25213;-87
2023/08/01 16:30:33;;;;;;;2.50;1.30;;;21.20;99.90;;;;;;1947988;73;25237;-88
2023/08/01 16:33:22;;;;;;;3.30;1.27;;;21.10;99.90;;;;;;1931477;73;25152;-88
2023/08/01 16:36:12;;;;;;;2.30;1.20;;;21.10;99.90;;;;;;1926732;73;25228;-87
2023/08/01 16:39:02;;;;;;;4.37;1.20;;;20.70;99.90;;;;;;1921032;73;25322;-87
2023/08/01 16:41:50;;;;;;;1.57;1.33;;;20.20;99.90;;;;;;1939544;73;25193;-87
2023/08/01 16:44:39;;;;;;;3.23;1.30;;;20.30;99.90;;;;;;1920792;73;25727;-88
2023/08/01 16:47:28;;;;;;;1.50;1.03;;;20.20;99.90;;;;;;1915872;73;25265;-88
2023/08/01 16:50:18;;;;;;;4.00;1.33;;;20.40;99.90;;;;;;1916866;73;25306;-88
2023/08/01 16:53:07;;;;;;;2.43;1.23;;;20.60;99.90;;;;;;1924744;73;25233;-87
2023/08/01 16:55:56;;;;;;;2.93;1.30;;;20.60;99.90;;;;;;1914757;73;25247;-88
2023/08/01 16:58:45;;;;;;;1.63;1.20;;;20.60;99.90;;;;;;1925977;73;25172;-88
2023/08/01 17:01:33;;;;;;;2.57;1.30;;;20.50;99.90;;;;;;1897060;73;25204;-88
2023/08/01 17:07:41;;;;;;;1.33;1.23;;;20.40;99.90;;;;;;1996116;71;25906;-88
2023/08/01 17:10:31;;;;;;;3.90;1.20;;;20.30;99.90;;;;;;1959239;70;25250;-88
2023/08/01 17:13:19;;;;;;;2.07;1.20;;;20.40;99.90;;;;;;2029348;69;25254;-88
2023/08/01 17:29:44;;;;;;;2.10;1.50;;;20.40;99.90;;;;;;1931731;72;26405;-88
2023/08/01 17:48:30;;;;;;;1.70;1.43;;;20.40;99.90;;;;;;1856517;75;27241;-87
2023/08/01 17:51:20;;;;;;;3.60;1.30;;;20.50;99.90;;;;;;1801515;79;26205;-88
2023/08/01 17:54:09;;;;;;;2.33;1.57;;;20.50;99.90;;;;;;1786283;79;25263;-87
2023/08/01 17:56:57;;;;;;;1.40;1.30;;;20.50;99.90;;;;;;1799986;79;25215;-87
2023/08/01 17:59:46;;;;;;;3.70;1.67;;;20.40;99.90;;;;;;1805099;79;25274;-87
2023/08/01 18:02:35;;;;;;;1.70;1.53;;;20.30;99.90;;;;;;1796923;79;25284;-88
2023/08/01 18:05:25;;;;;;;3.03;1.40;;;20.20;99.90;;;;;;1800657;79;25266;-87
2023/08/01 18:37:38;;;;;;;2.93;1.40;;;20.00;99.90;;;;;;1905293;74;26994;-88
2023/08/01 18:40:28;;;;;;;1.93;1.70;;;20.10;99.90;;;;;;1862348;76;25231;-88
2023/08/01 18:46:37;;;;;;;4.10;1.63;;;20.00;99.90;;;;;;1991436;71;27026;-88
2023/08/01 18:53:12;;;;;;;2.77;1.73;;;19.50;99.90;;;;;;2002786;71;26836;-88
2023/08/01 18:56:08;;;;;;;4.57;1.67;;;19.50;99.90;;;;;;2063563;69;25272;-89
2023/08/01 18:58:57;;;;;;;1.47;1.37;;;19.50;99.90;;;;;;2060807;69;25261;-88
2023/08/01 19:01:47;;;;;;;2.87;1.70;;;19.60;99.90;;;;;;2057526;69;25181;-88
2023/08/01 19:07:28;;;;;;;1.70;1.57;;;19.40;99.90;;;;;;1940341;72;27023;-88
2023/08/01 19:10:17;;;;;;;5.07;1.80;;;19.40;99.90;;;;;;1883830;75;25859;-88
2023/08/01 19:16:52;;;;;;;4.43;1.83;;;19.10;99.90;;;;;;1947663;72;26309;-88
2023/08/01 19:19:40;;;;;;;2.53;1.90;;;19.00;99.90;;;;;;1988266;72;25243;-88
2023/08/01 19:22:29;;;;;;;2.53;1.80;;;19.00;99.90;;;;;;1984852;72;25222;-88
2023/08/01 19:25:18;;;;;;;8.37;1.90;;;18.90;99.90;;;;;;1998057;72;25177;-88
2023/08/01 19:28:07;;;;;;;1.83;1.67;;;18.80;99.90;;;;;;1978231;72;25222;-88
2023/08/01 19:30:56;;;;;;;2.37;2.00;;;18.70;99.90;;;;;;1978926;72;25497;-88
2023/08/01 19:33:45;;;;;;;2.53;2.17;;;18.70;99.90;;;;;;1983204;72;25745;-88
2023/08/01 19:36:35;;;;;;;4.90;2.00;;;18.60;99.90;;;;;;1989867;72;25226;-86
2023/08/01 19:39:26;;;;;;;3.93;1.97;;;18.50;99.90;;;;;;1992098;71;25222;-88
2023/08/01 19:42:15;;;;;;;2.90;1.77;;;18.50;99.90;;;;;;2020912;70;25317;-88
2023/08/01 19:45:09;;;;;;;3.70;2.00;;;18.40;99.90;;;;;;2029209;70;25238;-88
2023/08/01 19:47:58;;;;;;;4.13;2.00;;;18.40;99.90;;;;;;2017319;70;25296;-88
2023/08/01 19:50:52;;;;;;;5.20;2.17;;;18.30;99.90;;;;;;2020335;70;25252;-88
2023/08/01 19:53:38;;;;;;;5.03;2.30;;;18.10;99.90;;;;;;2023235;70;25285;-88
2023/08/01 19:56:27;;;;;;;8.13;2.17;;;18.00;99.90;;;;;;2034795;70;25207;-88
2023/08/01 19:59:17;;;;;;;10.97;2.60;;;17.90;99.90;;;;;;2011386;70;25180;-88
2023/08/01 20:02:06;;;;;;;4.37;2.40;;;17.80;99.90;;;;;;2007635;70;25195;-89
2023/08/01 20:04:56;;;;;;;4.60;2.70;;;17.80;99.90;;;;;;2018402;70;25216;-89
2023/08/01 20:07:46;;;;;;;4.00;2.30;;;17.80;99.90;;;;;;2023851;70;25225;-89
2023/08/01 20:14:58;;;;;;;5.47;2.20;;;17.50;99.90;;;;;;1985272;71;26721;-89
2023/08/01 20:17:48;;;;;;;4.60;2.27;;;17.50;99.90;;;;;;2009552;70;25639;-89
2023/08/01 20:23:34;;;;;;;3.97;2.30;;;17.70;99.90;;;;;;1968595;72;26977;-88
2023/08/01 20:26:24;;;;;;;6.33;2.50;;;17.70;99.90;;;;;;1920993;73;26214;-89
2023/08/01 20:29:13;;;;;;;7.10;2.20;;;17.70;99.90;;;;;;1945102;73;25673;-89
2023/08/01 20:34:44;;;;;;;4.37;2.30;;;17.80;99.90;;;;;;1953155;72;27469;-89
2023/08/01 20:37:34;;;;;;;3.17;2.10;;;17.70;99.90;;;;;;1894722;75;25282;-89
2023/08/01 20:40:23;;;;;;;4.27;2.40;;;17.80;99.90;;;;;;1913678;75;25232;-89
2023/08/01 20:43:12;;;;;;;5.93;2.30;;;17.80;99.90;;;;;;1870450;75;25185;-91
2023/08/01 20:46:01;;;;;;;4.40;2.20;;;17.80;99.90;;;;;;1884128;76;25223;-89
2023/08/01 20:52:13;;;;;;;2.00;1.90;;;17.90;99.90;;;;;;1982060;71;27003;-89
2023/08/01 20:57:50;;;;;;;6.10;2.57;;;17.70;99.90;;;;;;1937342;72;26830;-89
2023/08/01 21:00:40;;;;;;;4.57;2.50;;;17.70;99.90;;;;;;1912231;75;25229;-89
2023/08/01 21:03:29;;;;;;;5.13;2.50;;;17.70;99.90;;;;;;1872077;76;25291;-89
2023/08/01 21:06:19;;;;;;;3.23;2.23;;;17.80;99.90;;;;;;1839987;76;25361;-90
2023/08/01 21:09:08;;;;;;;3.30;2.23;;;17.80;99.90;;;;;;1865549;76;25336;-90
2023/08/01 21:11:58;;;;;;;2.70;2.17;;;17.70;99.90;;;;;;1863291;76;25244;-89
2023/08/01 21:14:47;;;;;;;4.60;2.33;;;17.70;99.90;;;;;;1873754;76;25701;-89
2023/08/01 21:17:37;;;;;;;5.40;2.50;;;17.70;99.90;;;;;;1879077;75;25238;-90
2023/08/01 21:23:21;;;;;;;4.53;2.43;;;17.60;99.90;;;;;;1941895;72;27152;-89
2023/08/01 21:26:10;;;;;;;2.23;2.03;;;17.60;99.90;;;;;;1928101;73;26655;-89
2023/08/01 21:29:00;;;;;;;4.33;2.27;;;17.60;99.90;;;;;;1929449;73;25299;-89
2023/08/01 21:34:36;;;;;;;3.50;2.37;;;17.50;99.90;;;;;;1948871;72;26710;-89
2023/08/01 21:50:54;;;;;;;7.73;2.10;;;17.60;99.90;;;;;;1873961;75;27628;-89
2023/08/01 21:56:23;;;;;;;3.40;2.27;;;17.50;99.90;;;;;;1933244;72;27504;-88
2023/08/01 22:05:04;;;;;;;4.67;2.50;;;17.50;99.90;;;;;;1988241;71;27738;-88
2023/08/01 22:10:39;;;;;;;3.07;2.27;;;17.50;99.90;;;;;;1953312;72;26928;-88
2023/08/01 22:16:17;;;;;;;3.80;2.00;;;17.50;99.90;;;;;;1953575;72;26561;-88
2023/08/01 22:19:07;;;;;;;3.37;2.40;;;17.30;99.90;;;;;;1921648;73;25289;-88
2023/08/01 22:21:56;;;;;;;2.23;2.03;;;17.30;99.90;;;;;;1924196;73;25277;-88
2023/08/01 22:24:45;;;;;;;4.30;2.00;;;17.20;99.90;;;;;;1914012;73;25620;-88
2023/08/01 22:57:26;;;;;;;4.93;2.50;;;17.00;99.90;;;;;;1891433;74;26394;-90
2023/08/01 23:07:28;;;;;;;4.40;2.20;;;16.90;99.90;;;;;;1970326;72;26376;-89
2023/08/01 23:10:18;;;;;;;2.40;2.20;;;16.80;99.90;;;;;;1995163;72;25781;-89
2023/08/01 23:13:07;;;;;;;5.03;2.23;;;16.80;99.90;;;;;;1998045;72;25252;-89
2023/08/01 23:15:57;;;;;;;3.23;2.20;;;16.70;99.90;;;;;;1997978;72;25721;-89
2023/08/01 23:18:46;;;;;;;4.60;2.30;;;16.70;99.90;;;;;;1993705;71;25289;-89
2023/08/01 23:21:35;;;;;;;4.73;2.07;;;16.70;99.90;;;;;;1996971;72;25711;-89
2023/08/01 23:24:24;;;;;;;3.70;1.90;;;16.70;99.90;;;;;;1998360;72;25155;-89
2023/08/01 23:27:14;;;;;;;4.80;2.33;;;16.70;99.90;;;;;;1996327;72;25244;-89
2023/08/01 23:30:03;;;;;;;6.00;2.37;;;16.70;99.90;;;;;;1993539;72;25182;-89
2023/08/01 23:32:55;;;;;;;2.83;2.40;;;16.60;99.90;;;;;;1997320;72;25623;-89
2023/08/01 23:35:46;;;;;;;2.60;2.40;;;16.50;99.90;;;;;;1997962;72;25312;-92
2023/08/01 23:42:09;;;;;;;3.23;2.50;;;16.60;99.90;;;;;;1979463;71;26324;-89
2023/08/01 23:44:58;;;;;;;3.93;2.53;;;16.70;99.90;;;;;;1924340;74;25523;-89
2023/08/01 23:47:48;;;;;;;5.53;2.63;;;16.70;99.90;;;;;;1933084;73;25211;-88
2023/08/01 23:50:43;;;;;;;2.47;2.27;;;16.60;99.90;;;;;;1938808;73;25675;-89
2023/08/01 23:53:32;;;;;;;2.70;2.50;;;16.70;99.90;;;;;;1962014;73;25240;-89
